sensor_id;sensor_type;location;lat;lon;timestamp;P1;durP1;ratioP1;P2;durP2;ratioP2
12224;SDS011;6175;50.956;11.064;2023-04-04T00:01:26;4.35;;;2.40;;
12224;SDS011;6175;50.956;11.064;2023-04-04T00:03:53;3.30;;;2.50;;
12224;SDS011;6175;50.956;11.064;2023-04-04T00:06:21;2.30;;;2.10;;
12224;SDS011;6175;50.956;11.064;2023-04-04T00:08:48;2.85;;;2.20;;
12224;SDS011;6175;50.956;11.064;2023-04-04T00:11:15;2.10;;;1.90;;
12224;SDS011;6175;50.956;11.064;2023-04-04T00:13:44;2.40;;;2.20;;
12224;SDS011;6175;50.956;11.064;2023-04-04T00:16:11;2.53;;;1.92;;
12224;SDS011;6175;50.956;11.064;2023-04-04T00:18:38;2.60;;;2.20;;
12224;SDS011;6175;50.956;11.064;2023-04-04T00:21:05;2.08;;;1.83;;
12224;SDS011;6175;50.956;11.064;2023-04-04T00:23:32;1.90;;;1.52;;
12224;SDS011;6175;50.956;11.064;2023-04-04T00:26:00;2.42;;;2.20;;
12224;SDS011;6175;50.956;11.064;2023-04-04T00:28:26;2.28;;;2.08;;
12224;SDS011;6175;50.956;11.064;2023-04-04T00:30:55;2.45;;;2.20;;
12224;SDS011;6175;50.956;11.064;2023-04-04T00:33:22;2.05;;;1.95;;
12224;SDS011;6175;50.956;11.064;2023-04-04T00:35:49;2.72;;;2.20;;
12224;SDS011;6175;50.956;11.064;2023-04-04T00:38:17;2.30;;;2.10;;
12224;SDS011;6175;50.956;11.064;2023-04-04T00:40:45;2.08;;;1.88;;
12224;SDS011;6175;50.956;11.064;2023-04-04T00:43:14;2.00;;;1.80;;
12224;SDS011;6175;50.956;11.064;2023-04-04T00:45:41;2.35;;;1.90;;
12224;SDS011;6175;50.956;11.064;2023-04-04T00:48:10;1.85;;;1.73;;
12224;SDS011;6175;50.956;11.064;2023-04-04T00:50:37;2.00;;;1.90;;
12224;SDS011;6175;50.956;11.064;2023-04-04T00:53:04;2.63;;;2.03;;
12224;SDS011;6175;50.956;11.064;2023-04-04T00:55:32;2.92;;;1.92;;
12224;SDS011;6175;50.956;11.064;2023-04-04T00:57:59;2.15;;;1.95;;
12224;SDS011;6175;50.956;11.064;2023-04-04T01:00:26;3.63;;;1.88;;
12224;SDS011;6175;50.956;11.064;2023-04-04T01:02:53;2.90;;;2.03;;
12224;SDS011;6175;50.956;11.064;2023-04-04T01:05:22;2.28;;;2.08;;
12224;SDS011;6175;50.956;11.064;2023-04-04T01:07:50;2.00;;;1.80;;
12224;SDS011;6175;50.956;11.064;2023-04-04T01:10:17;2.00;;;1.90;;
12224;SDS011;6175;50.956;11.064;2023-04-04T01:12:44;2.33;;;2.13;;
12224;SDS011;6175;50.956;11.064;2023-04-04T01:15:11;2.67;;;2.22;;
12224;SDS011;6175;50.956;11.064;2023-04-04T01:17:39;3.67;;;2.17;;
12224;SDS011;6175;50.956;11.064;2023-04-04T01:20:09;3.00;;;2.40;;
12224;SDS011;6175;50.956;11.064;2023-04-04T01:22:41;2.20;;;2.00;;
12224;SDS011;6175;50.956;11.064;2023-04-04T01:25:09;2.53;;;2.30;;
12224;SDS011;6175;50.956;11.064;2023-04-04T01:27:38;2.20;;;2.00;;
12224;SDS011;6175;50.956;11.064;2023-04-04T01:30:06;2.50;;;2.28;;
12224;SDS011;6175;50.956;11.064;2023-04-04T01:32:35;3.80;;;2.00;;
12224;SDS011;6175;50.956;11.064;2023-04-04T01:35:08;2.30;;;2.13;;
12224;SDS011;6175;50.956;11.064;2023-04-04T01:37:46;2.00;;;1.80;;
12224;SDS011;6175;50.956;11.064;2023-04-04T01:40:20;2.10;;;1.90;;
12224;SDS011;6175;50.956;11.064;2023-04-04T01:42:52;1.75;;;1.65;;
12224;SDS011;6175;50.956;11.064;2023-04-04T01:45:20;2.15;;;1.92;;
12224;SDS011;6175;50.956;11.064;2023-04-04T01:47:48;2.53;;;2.33;;
12224;SDS011;6175;50.956;11.064;2023-04-04T01:50:15;2.40;;;2.20;;
12224;SDS011;6175;50.956;11.064;2023-04-04T01:52:42;2.63;;;2.30;;
12224;SDS011;6175;50.956;11.064;2023-04-04T01:55:09;2.57;;;2.37;;
12224;SDS011;6175;50.956;11.064;2023-04-04T01:57:36;2.30;;;2.10;;
12224;SDS011;6175;50.956;11.064;2023-04-04T02:00:05;2.27;;;2.17;;
12224;SDS011;6175;50.956;11.064;2023-04-04T02:02:33;2.70;;;2.22;;
12224;SDS011;6175;50.956;11.064;2023-04-04T02:05:00;2.33;;;2.13;;
12224;SDS011;6175;50.956;11.064;2023-04-04T02:07:28;2.17;;;2.07;;
12224;SDS011;6175;50.956;11.064;2023-04-04T02:09:55;2.72;;;2.30;;
12224;SDS011;6175;50.956;11.064;2023-04-04T02:12:22;3.03;;;2.77;;
12224;SDS011;6175;50.956;11.064;2023-04-04T02:14:50;3.00;;;2.80;;
12224;SDS011;6175;50.956;11.064;2023-04-04T02:17:19;2.90;;;2.70;;
12224;SDS011;6175;50.956;11.064;2023-04-04T02:19:46;3.17;;;2.70;;
12224;SDS011;6175;50.956;11.064;2023-04-04T02:22:13;3.50;;;2.80;;
12224;SDS011;6175;50.956;11.064;2023-04-04T02:24:40;2.63;;;2.37;;
12224;SDS011;6175;50.956;11.064;2023-04-04T02:27:08;3.27;;;2.60;;
12224;SDS011;6175;50.956;11.064;2023-04-04T02:29:35;3.38;;;2.58;;
12224;SDS011;6175;50.956;11.064;2023-04-04T02:32:02;2.70;;;2.50;;
12224;SDS011;6175;50.956;11.064;2023-04-04T02:34:30;2.80;;;2.60;;
12224;SDS011;6175;50.956;11.064;2023-04-04T02:36:57;2.95;;;2.65;;
12224;SDS011;6175;50.956;11.064;2023-04-04T02:39:26;2.88;;;2.22;;
12224;SDS011;6175;50.956;11.064;2023-04-04T02:41:53;2.90;;;2.35;;
12224;SDS011;6175;50.956;11.064;2023-04-04T02:44:20;2.60;;;2.40;;
12224;SDS011;6175;50.956;11.064;2023-04-04T02:46:47;3.57;;;2.70;;
12224;SDS011;6175;50.956;11.064;2023-04-04T02:49:14;2.97;;;2.38;;
12224;SDS011;6175;50.956;11.064;2023-04-04T02:51:43;2.60;;;2.30;;
12224;SDS011;6175;50.956;11.064;2023-04-04T02:54:10;2.42;;;2.22;;
12224;SDS011;6175;50.956;11.064;2023-04-04T02:56:37;2.63;;;2.43;;
12224;SDS011;6175;50.956;11.064;2023-04-04T02:59:04;2.40;;;2.20;;
12224;SDS011;6175;50.956;11.064;2023-04-04T03:01:31;2.72;;;2.25;;
12224;SDS011;6175;50.956;11.064;2023-04-04T03:03:58;2.37;;;2.17;;
12224;SDS011;6175;50.956;11.064;2023-04-04T03:06:30;2.22;;;2.03;;
12224;SDS011;6175;50.956;11.064;2023-04-04T03:08:58;2.25;;;2.05;;
12224;SDS011;6175;50.956;11.064;2023-04-04T03:11:26;2.60;;;2.40;;
12224;SDS011;6175;50.956;11.064;2023-04-04T03:13:53;2.78;;;2.55;;
12224;SDS011;6175;50.956;11.064;2023-04-04T03:16:20;2.50;;;2.30;;
12224;SDS011;6175;50.956;11.064;2023-04-04T03:18:47;2.87;;;2.30;;
12224;SDS011;6175;50.956;11.064;2023-04-04T03:21:15;2.43;;;2.23;;
12224;SDS011;6175;50.956;11.064;2023-04-04T03:23:42;3.33;;;2.75;;
12224;SDS011;6175;50.956;11.064;2023-04-04T03:26:13;4.40;;;2.72;;
12224;SDS011;6175;50.956;11.064;2023-04-04T03:28:40;2.60;;;2.40;;
12224;SDS011;6175;50.956;11.064;2023-04-04T03:31:07;3.47;;;2.53;;
12224;SDS011;6175;50.956;11.064;2023-04-04T03:33:34;3.10;;;2.40;;
12224;SDS011;6175;50.956;11.064;2023-04-04T03:36:02;2.13;;;1.90;;
12224;SDS011;6175;50.956;11.064;2023-04-04T03:38:29;2.30;;;2.10;;
12224;SDS011;6175;50.956;11.064;2023-04-04T03:41:00;2.20;;;2.00;;
12224;SDS011;6175;50.956;11.064;2023-04-04T03:43:29;2.55;;;2.05;;
12224;SDS011;6175;50.956;11.064;2023-04-04T03:45:58;2.60;;;2.40;;
12224;SDS011;6175;50.956;11.064;2023-04-04T03:48:26;2.33;;;2.13;;
12224;SDS011;6175;50.956;11.064;2023-04-04T03:50:53;2.70;;;2.50;;
12224;SDS011;6175;50.956;11.064;2023-04-04T03:53:20;2.53;;;2.33;;
12224;SDS011;6175;50.956;11.064;2023-04-04T03:55:47;2.50;;;2.30;;
12224;SDS011;6175;50.956;11.064;2023-04-04T03:58:14;3.60;;;2.40;;
12224;SDS011;6175;50.956;11.064;2023-04-04T04:00:43;4.50;;;2.23;;
12224;SDS011;6175;50.956;11.064;2023-04-04T04:03:10;2.22;;;2.10;;
12224;SDS011;6175;50.956;11.064;2023-04-04T04:05:37;4.43;;;2.77;;
12224;SDS011;6175;50.956;11.064;2023-04-04T04:08:04;2.45;;;2.25;;
12224;SDS011;6175;50.956;11.064;2023-04-04T04:10:32;2.80;;;2.40;;
12224;SDS011;6175;50.956;11.064;2023-04-04T04:12:59;4.00;;;2.53;;
12224;SDS011;6175;50.956;11.064;2023-04-04T04:15:26;2.60;;;2.30;;
12224;SDS011;6175;50.956;11.064;2023-04-04T04:17:55;3.53;;;2.83;;
12224;SDS011;6175;50.956;11.064;2023-04-04T04:20:22;2.60;;;2.40;;
12224;SDS011;6175;50.956;11.064;2023-04-04T04:22:50;2.70;;;2.50;;
12224;SDS011;6175;50.956;11.064;2023-04-04T04:25:17;2.97;;;2.60;;
12224;SDS011;6175;50.956;11.064;2023-04-04T04:27:44;3.07;;;2.50;;
12224;SDS011;6175;50.956;11.064;2023-04-04T04:30:11;2.87;;;2.57;;
12224;SDS011;6175;50.956;11.064;2023-04-04T04:32:38;3.20;;;2.90;;
12224;SDS011;6175;50.956;11.064;2023-04-04T04:35:08;4.40;;;2.90;;
12224;SDS011;6175;50.956;11.064;2023-04-04T04:37:35;3.30;;;2.80;;
12224;SDS011;6175;50.956;11.064;2023-04-04T04:40:02;4.00;;;3.20;;
12224;SDS011;6175;50.956;11.064;2023-04-04T04:42:30;3.80;;;3.00;;
12224;SDS011;6175;50.956;11.064;2023-04-04T04:44:57;3.93;;;3.20;;
12224;SDS011;6175;50.956;11.064;2023-04-04T04:47:24;4.20;;;3.00;;
12224;SDS011;6175;50.956;11.064;2023-04-04T04:49:52;4.30;;;2.97;;
12224;SDS011;6175;50.956;11.064;2023-04-04T04:52:20;3.87;;;3.03;;
12224;SDS011;6175;50.956;11.064;2023-04-04T04:54:48;3.40;;;3.10;;
12224;SDS011;6175;50.956;11.064;2023-04-04T04:57:15;3.77;;;3.33;;
12224;SDS011;6175;50.956;11.064;2023-04-04T04:59:42;4.00;;;2.97;;
12224;SDS011;6175;50.956;11.064;2023-04-04T05:02:10;4.17;;;3.30;;
12224;SDS011;6175;50.956;11.064;2023-04-04T05:04:37;3.63;;;3.00;;
12224;SDS011;6175;50.956;11.064;2023-04-04T05:07:05;3.50;;;3.03;;
12224;SDS011;6175;50.956;11.064;2023-04-04T05:09:34;3.53;;;3.07;;
12224;SDS011;6175;50.956;11.064;2023-04-04T05:12:01;3.37;;;3.03;;
12224;SDS011;6175;50.956;11.064;2023-04-04T05:14:28;3.50;;;3.03;;
12224;SDS011;6175;50.956;11.064;2023-04-04T05:16:55;3.37;;;3.07;;
12224;SDS011;6175;50.956;11.064;2023-04-04T05:19:23;4.13;;;3.47;;
12224;SDS011;6175;50.956;11.064;2023-04-04T05:21:50;3.57;;;3.27;;
12224;SDS011;6175;50.956;11.064;2023-04-04T05:24:18;4.43;;;3.07;;
12224;SDS011;6175;50.956;11.064;2023-04-04T05:26:48;3.17;;;2.93;;
12224;SDS011;6175;50.956;11.064;2023-04-04T05:29:15;4.33;;;2.97;;
12224;SDS011;6175;50.956;11.064;2023-04-04T05:31:42;3.30;;;2.63;;
12224;SDS011;6175;50.956;11.064;2023-04-04T05:34:09;3.27;;;2.63;;
12224;SDS011;6175;50.956;11.064;2023-04-04T05:36:36;3.70;;;3.13;;
12224;SDS011;6175;50.956;11.064;2023-04-04T05:39:04;3.70;;;2.93;;
12224;SDS011;6175;50.956;11.064;2023-04-04T05:41:31;4.17;;;2.83;;
12224;SDS011;6175;50.956;11.064;2023-04-04T05:44:00;3.17;;;2.77;;
12224;SDS011;6175;50.956;11.064;2023-04-04T05:46:27;3.17;;;2.53;;
12224;SDS011;6175;50.956;11.064;2023-04-04T05:48:54;3.37;;;2.60;;
12224;SDS011;6175;50.956;11.064;2023-04-04T05:51:21;2.70;;;2.38;;
12224;SDS011;6175;50.956;11.064;2023-04-04T05:53:48;3.42;;;2.50;;
12224;SDS011;6175;50.956;11.064;2023-04-04T05:56:15;2.60;;;2.40;;
12224;SDS011;6175;50.956;11.064;2023-04-04T05:58:42;3.30;;;2.07;;
12224;SDS011;6175;50.956;11.064;2023-04-04T06:01:12;3.53;;;2.70;;
12224;SDS011;6175;50.956;11.064;2023-04-04T06:03:39;4.00;;;2.50;;
12224;SDS011;6175;50.956;11.064;2023-04-04T06:06:07;2.75;;;2.20;;
12224;SDS011;6175;50.956;11.064;2023-04-04T06:08:34;2.88;;;2.67;;
12224;SDS011;6175;50.956;11.064;2023-04-04T06:11:01;4.20;;;3.00;;
12224;SDS011;6175;50.956;11.064;2023-04-04T06:13:28;4.10;;;2.50;;
12224;SDS011;6175;50.956;11.064;2023-04-04T06:15:55;2.65;;;2.40;;
12224;SDS011;6175;50.956;11.064;2023-04-04T06:18:24;3.70;;;2.67;;
12224;SDS011;6175;50.956;11.064;2023-04-04T06:20:51;2.90;;;2.63;;
12224;SDS011;6175;50.956;11.064;2023-04-04T06:23:18;5.70;;;3.50;;
12224;SDS011;6175;50.956;11.064;2023-04-04T06:25:45;4.40;;;2.75;;
12224;SDS011;6175;50.956;11.064;2023-04-04T06:28:13;5.60;;;3.60;;
12224;SDS011;6175;50.956;11.064;2023-04-04T06:30:42;5.82;;;2.70;;
12224;SDS011;6175;50.956;11.064;2023-04-04T06:33:09;3.83;;;3.30;;
12224;SDS011;6175;50.956;11.064;2023-04-04T06:35:37;3.17;;;2.88;;
12224;SDS011;6175;50.956;11.064;2023-04-04T06:38:04;3.33;;;2.92;;
12224;SDS011;6175;50.956;11.064;2023-04-04T06:40:32;3.22;;;2.85;;
12224;SDS011;6175;50.956;11.064;2023-04-04T06:43:00;4.95;;;3.20;;
12224;SDS011;6175;50.956;11.064;2023-04-04T06:45:27;6.05;;;3.30;;
12224;SDS011;6175;50.956;11.064;2023-04-04T06:47:57;5.68;;;3.15;;
12224;SDS011;6175;50.956;11.064;2023-04-04T06:50:25;4.65;;;3.53;;
12224;SDS011;6175;50.956;11.064;2023-04-04T06:52:53;5.97;;;3.22;;
12224;SDS011;6175;50.956;11.064;2023-04-04T06:55:21;3.33;;;2.95;;
12224;SDS011;6175;50.956;11.064;2023-04-04T06:57:48;4.88;;;3.25;;
12224;SDS011;6175;50.956;11.064;2023-04-04T07:00:15;3.60;;;3.20;;
12224;SDS011;6175;50.956;11.064;2023-04-04T07:02:43;3.90;;;3.30;;
12224;SDS011;6175;50.956;11.064;2023-04-04T07:05:10;3.88;;;3.00;;
12224;SDS011;6175;50.956;11.064;2023-04-04T07:07:38;6.15;;;3.42;;
12224;SDS011;6175;50.956;11.064;2023-04-04T07:10:07;4.25;;;2.95;;
12224;SDS011;6175;50.956;11.064;2023-04-04T07:12:34;5.20;;;3.50;;
12224;SDS011;6175;50.956;11.064;2023-04-04T07:15:01;3.78;;;3.45;;
12224;SDS011;6175;50.956;11.064;2023-04-04T07:17:28;3.65;;;3.35;;
12224;SDS011;6175;50.956;11.064;2023-04-04T07:19:56;4.95;;;3.55;;
12224;SDS011;6175;50.956;11.064;2023-04-04T07:22:23;5.85;;;3.60;;
12224;SDS011;6175;50.956;11.064;2023-04-04T07:24:50;3.25;;;2.88;;
12224;SDS011;6175;50.956;11.064;2023-04-04T07:27:20;5.13;;;3.28;;
12224;SDS011;6175;50.956;11.064;2023-04-04T07:29:47;4.38;;;3.70;;
12224;SDS011;6175;50.956;11.064;2023-04-04T07:32:14;4.75;;;3.65;;
12224;SDS011;6175;50.956;11.064;2023-04-04T07:34:41;3.90;;;3.50;;
12224;SDS011;6175;50.956;11.064;2023-04-04T07:37:09;5.25;;;3.92;;
12224;SDS011;6175;50.956;11.064;2023-04-04T07:39:36;4.50;;;3.67;;
12224;SDS011;6175;50.956;11.064;2023-04-04T07:42:05;5.40;;;3.67;;
12224;SDS011;6175;50.956;11.064;2023-04-04T07:44:33;4.65;;;3.50;;
12224;SDS011;6175;50.956;11.064;2023-04-04T07:47:00;3.88;;;3.47;;
12224;SDS011;6175;50.956;11.064;2023-04-04T07:49:27;4.63;;;4.10;;
12224;SDS011;6175;50.956;11.064;2023-04-04T07:51:54;4.07;;;3.67;;
12224;SDS011;6175;50.956;11.064;2023-04-04T07:54:21;5.10;;;4.15;;
12224;SDS011;6175;50.956;11.064;2023-04-04T07:56:49;7.70;;;5.25;;
12224;SDS011;6175;50.956;11.064;2023-04-04T07:59:16;5.80;;;4.32;;
12224;SDS011;6175;50.956;11.064;2023-04-04T08:01:45;6.47;;;5.07;;
12224;SDS011;6175;50.956;11.064;2023-04-04T08:04:11;5.05;;;4.55;;
12224;SDS011;6175;50.956;11.064;2023-04-04T08:06:39;5.68;;;4.72;;
12224;SDS011;6175;50.956;11.064;2023-04-04T08:09:06;6.22;;;4.75;;
12224;SDS011;6175;50.956;11.064;2023-04-04T08:11:33;7.88;;;5.13;;
12224;SDS011;6175;50.956;11.064;2023-04-04T08:14:00;5.53;;;4.80;;
12224;SDS011;6175;50.956;11.064;2023-04-04T08:16:27;5.07;;;4.57;;
12224;SDS011;6175;50.956;11.064;2023-04-04T08:18:56;5.55;;;5.05;;
12224;SDS011;6175;50.956;11.064;2023-04-04T08:21:24;7.15;;;4.93;;
12224;SDS011;6175;50.956;11.064;2023-04-04T08:23:51;6.10;;;4.95;;
12224;SDS011;6175;50.956;11.064;2023-04-04T08:26:19;7.22;;;5.25;;
12224;SDS011;6175;50.956;11.064;2023-04-04T08:28:46;5.75;;;4.68;;
12224;SDS011;6175;50.956;11.064;2023-04-04T08:31:14;5.40;;;4.47;;
12224;SDS011;6175;50.956;11.064;2023-04-04T08:33:41;8.73;;;4.93;;
12224;SDS011;6175;50.956;11.064;2023-04-04T08:36:10;7.47;;;5.05;;
12224;SDS011;6175;50.956;11.064;2023-04-04T08:38:37;6.68;;;4.35;;
12224;SDS011;6175;50.956;11.064;2023-04-04T08:41:04;4.88;;;4.30;;
12224;SDS011;6175;50.956;11.064;2023-04-04T08:43:32;6.90;;;3.78;;
12224;SDS011;6175;50.956;11.064;2023-04-04T08:46:02;4.30;;;3.40;;
12224;SDS011;6175;50.956;11.064;2023-04-04T08:48:30;4.40;;;3.90;;
12224;SDS011;6175;50.956;11.064;2023-04-04T08:50:58;3.63;;;3.33;;
12224;SDS011;6175;50.956;11.064;2023-04-04T08:53:27;4.07;;;3.63;;
12224;SDS011;6175;50.956;11.064;2023-04-04T08:55:55;11.07;;;8.13;;
12224;SDS011;6175;50.956;11.064;2023-04-04T08:58:25;5.15;;;4.22;;
12224;SDS011;6175;50.956;11.064;2023-04-04T09:00:52;7.70;;;6.20;;
12224;SDS011;6175;50.956;11.064;2023-04-04T09:03:21;3.25;;;2.95;;
12224;SDS011;6175;50.956;11.064;2023-04-04T09:05:50;5.72;;;3.88;;
12224;SDS011;6175;50.956;11.064;2023-04-04T09:08:17;3.70;;;3.30;;
12224;SDS011;6175;50.956;11.064;2023-04-04T09:10:47;5.97;;;4.10;;
12224;SDS011;6175;50.956;11.064;2023-04-04T09:13:15;3.47;;;3.17;;
12224;SDS011;6175;50.956;11.064;2023-04-04T09:15:45;3.78;;;2.90;;
12224;SDS011;6175;50.956;11.064;2023-04-04T09:18:13;4.95;;;2.85;;
12224;SDS011;6175;50.956;11.064;2023-04-04T09:20:40;2.65;;;2.45;;
12224;SDS011;6175;50.956;11.064;2023-04-04T09:23:08;2.28;;;1.80;;
12224;SDS011;6175;50.956;11.064;2023-04-04T09:25:37;2.42;;;2.20;;
12224;SDS011;6175;50.956;11.064;2023-04-04T09:28:06;5.90;;;3.28;;
12224;SDS011;6175;50.956;11.064;2023-04-04T09:30:33;3.85;;;2.65;;
12224;SDS011;6175;50.956;11.064;2023-04-04T09:33:01;3.70;;;2.58;;
12224;SDS011;6175;50.956;11.064;2023-04-04T09:35:28;3.22;;;2.90;;
12224;SDS011;6175;50.956;11.064;2023-04-04T09:37:55;3.53;;;2.88;;
12224;SDS011;6175;50.956;11.064;2023-04-04T09:40:22;2.78;;;2.50;;
12224;SDS011;6175;50.956;11.064;2023-04-04T09:42:53;3.00;;;2.63;;
12224;SDS011;6175;50.956;11.064;2023-04-04T09:45:23;2.60;;;2.25;;
12224;SDS011;6175;50.956;11.064;2023-04-04T09:47:51;2.85;;;2.60;;
12224;SDS011;6175;50.956;11.064;2023-04-04T09:50:22;2.58;;;2.38;;
12224;SDS011;6175;50.956;11.064;2023-04-04T09:52:51;2.60;;;2.40;;
12224;SDS011;6175;50.956;11.064;2023-04-04T09:55:22;3.50;;;2.28;;
12224;SDS011;6175;50.956;11.064;2023-04-04T09:57:57;3.05;;;2.20;;
12224;SDS011;6175;50.956;11.064;2023-04-04T10:00:28;2.50;;;2.30;;
12224;SDS011;6175;50.956;11.064;2023-04-04T10:03:01;3.33;;;2.38;;
12224;SDS011;6175;50.956;11.064;2023-04-04T10:05:28;2.63;;;2.10;;
12224;SDS011;6175;50.956;11.064;2023-04-04T10:07:55;3.67;;;2.22;;
12224;SDS011;6175;50.956;11.064;2023-04-04T10:10:25;2.50;;;2.22;;
12224;SDS011;6175;50.956;11.064;2023-04-04T10:12:55;2.75;;;2.28;;
12224;SDS011;6175;50.956;11.064;2023-04-04T10:15:22;2.55;;;2.20;;
12224;SDS011;6175;50.956;11.064;2023-04-04T10:17:52;2.67;;;2.20;;
12224;SDS011;6175;50.956;11.064;2023-04-04T10:20:19;1.90;;;1.80;;
12224;SDS011;6175;50.956;11.064;2023-04-04T10:22:47;2.38;;;2.17;;
12224;SDS011;6175;50.956;11.064;2023-04-04T10:25:15;2.40;;;2.20;;
12224;SDS011;6175;50.956;11.064;2023-04-04T10:27:43;2.88;;;2.20;;
12224;SDS011;6175;50.956;11.064;2023-04-04T10:30:11;2.13;;;1.92;;
12224;SDS011;6175;50.956;11.064;2023-04-04T10:32:42;2.97;;;2.28;;
12224;SDS011;6175;50.956;11.064;2023-04-04T10:35:11;2.65;;;1.90;;
12224;SDS011;6175;50.956;11.064;2023-04-04T10:37:39;3.78;;;2.30;;
12224;SDS011;6175;50.956;11.064;2023-04-04T10:40:23;2.80;;;2.15;;
12224;SDS011;6175;50.956;11.064;2023-04-04T10:42:51;3.15;;;2.00;;
12224;SDS011;6175;50.956;11.064;2023-04-04T10:45:19;3.05;;;1.98;;
12224;SDS011;6175;50.956;11.064;2023-04-04T10:47:46;2.92;;;2.00;;
12224;SDS011;6175;50.956;11.064;2023-04-04T10:50:15;2.97;;;2.22;;
12224;SDS011;6175;50.956;11.064;2023-04-04T10:52:42;3.20;;;2.20;;
12224;SDS011;6175;50.956;11.064;2023-04-04T10:55:11;4.45;;;2.33;;
12224;SDS011;6175;50.956;11.064;2023-04-04T10:57:39;3.88;;;2.17;;
12224;SDS011;6175;50.956;11.064;2023-04-04T11:00:08;3.33;;;2.50;;
12224;SDS011;6175;50.956;11.064;2023-04-04T11:02:43;3.30;;;2.20;;
12224;SDS011;6175;50.956;11.064;2023-04-04T11:05:12;2.47;;;2.22;;
12224;SDS011;6175;50.956;11.064;2023-04-04T11:07:44;2.90;;;1.98;;
12224;SDS011;6175;50.956;11.064;2023-04-04T11:10:12;3.67;;;2.20;;
12224;SDS011;6175;50.956;11.064;2023-04-04T11:12:43;3.03;;;2.60;;
12224;SDS011;6175;50.956;11.064;2023-04-04T11:15:12;3.35;;;2.45;;
12224;SDS011;6175;50.956;11.064;2023-04-04T11:17:48;2.70;;;2.25;;
12224;SDS011;6175;50.956;11.064;2023-04-04T11:20:18;4.38;;;3.10;;
12224;SDS011;6175;50.956;11.064;2023-04-04T11:22:48;2.20;;;2.00;;
12224;SDS011;6175;50.956;11.064;2023-04-04T11:25:25;3.95;;;2.40;;
12224;SDS011;6175;50.956;11.064;2023-04-04T11:28:06;2.95;;;2.35;;
12224;SDS011;6175;50.956;11.064;2023-04-04T11:30:39;2.83;;;2.40;;
12224;SDS011;6175;50.956;11.064;2023-04-04T11:33:12;4.18;;;2.90;;
12224;SDS011;6175;50.956;11.064;2023-04-04T11:35:45;3.17;;;2.30;;
12224;SDS011;6175;50.956;11.064;2023-04-04T11:38:15;2.55;;;2.35;;
12224;SDS011;6175;50.956;11.064;2023-04-04T11:40:52;2.45;;;2.25;;
12224;SDS011;6175;50.956;11.064;2023-04-04T11:43:20;3.05;;;2.35;;
12224;SDS011;6175;50.956;11.064;2023-04-04T11:45:47;2.58;;;2.35;;
12224;SDS011;6175;50.956;11.064;2023-04-04T11:48:15;2.67;;;2.40;;
12224;SDS011;6175;50.956;11.064;2023-04-04T11:50:46;2.80;;;2.35;;
12224;SDS011;6175;50.956;11.064;2023-04-04T11:53:15;3.72;;;2.38;;
12224;SDS011;6175;50.956;11.064;2023-04-04T11:55:42;2.35;;;2.15;;
12224;SDS011;6175;50.956;11.064;2023-04-04T11:58:15;2.85;;;2.42;;
12224;SDS011;6175;50.956;11.064;2023-04-04T12:00:43;4.18;;;2.10;;
12224;SDS011;6175;50.956;11.064;2023-04-04T12:03:11;2.75;;;1.95;;
12224;SDS011;6175;50.956;11.064;2023-04-04T12:05:38;3.25;;;2.58;;
12224;SDS011;6175;50.956;11.064;2023-04-04T12:08:08;2.75;;;2.20;;
12224;SDS011;6175;50.956;11.064;2023-04-04T12:10:37;2.03;;;1.83;;
12224;SDS011;6175;50.956;11.064;2023-04-04T12:13:05;3.97;;;2.50;;
12224;SDS011;6175;50.956;11.064;2023-04-04T12:15:33;2.30;;;2.10;;
12224;SDS011;6175;50.956;11.064;2023-04-04T12:18:01;3.42;;;2.10;;
12224;SDS011;6175;50.956;11.064;2023-04-04T12:20:28;2.70;;;2.03;;
12224;SDS011;6175;50.956;11.064;2023-04-04T12:22:56;3.35;;;2.05;;
12224;SDS011;6175;50.956;11.064;2023-04-04T12:25:25;3.08;;;2.17;;
12224;SDS011;6175;50.956;11.064;2023-04-04T12:27:57;3.13;;;2.03;;
12224;SDS011;6175;50.956;11.064;2023-04-04T12:30:25;2.42;;;2.08;;
12224;SDS011;6175;50.956;11.064;2023-04-04T12:32:53;2.78;;;1.95;;
12224;SDS011;6175;50.956;11.064;2023-04-04T12:35:20;2.55;;;2.10;;
12224;SDS011;6175;50.956;11.064;2023-04-04T12:40:43;1.85;;;1.65;;
12224;SDS011;6175;50.956;11.064;2023-04-04T12:43:14;2.55;;;1.83;;
12224;SDS011;6175;50.956;11.064;2023-04-04T12:45:42;2.55;;;2.15;;
12224;SDS011;6175;50.956;11.064;2023-04-04T12:48:10;2.25;;;2.05;;
12224;SDS011;6175;50.956;11.064;2023-04-04T12:50:48;2.13;;;1.92;;
12224;SDS011;6175;50.956;11.064;2023-04-04T12:53:18;3.70;;;2.00;;
12224;SDS011;6175;50.956;11.064;2023-04-04T12:55:47;2.90;;;2.17;;
12224;SDS011;6175;50.956;11.064;2023-04-04T12:58:14;2.50;;;2.15;;
12224;SDS011;6175;50.956;11.064;2023-04-04T13:00:41;2.22;;;2.03;;
12224;SDS011;6175;50.956;11.064;2023-04-04T13:03:09;2.38;;;2.17;;
12224;SDS011;6175;50.956;11.064;2023-04-04T13:05:37;5.90;;;3.42;;
12224;SDS011;6175;50.956;11.064;2023-04-04T13:08:04;3.35;;;1.90;;
12224;SDS011;6175;50.956;11.064;2023-04-04T13:13:34;3.25;;;1.98;;
12224;SDS011;6175;50.956;11.064;2023-04-04T13:16:02;3.13;;;1.85;;
12224;SDS011;6175;50.956;11.064;2023-04-04T13:18:32;3.45;;;2.10;;
12224;SDS011;6175;50.956;11.064;2023-04-04T13:21:01;1.83;;;1.73;;
12224;SDS011;6175;50.956;11.064;2023-04-04T13:23:28;3.08;;;1.60;;
12224;SDS011;6175;50.956;11.064;2023-04-04T13:25:56;2.33;;;2.13;;
12224;SDS011;6175;50.956;11.064;2023-04-04T13:28:25;2.85;;;1.95;;
12224;SDS011;6175;50.956;11.064;2023-04-04T13:30:52;2.10;;;1.92;;
12224;SDS011;6175;50.956;11.064;2023-04-04T13:33:19;3.38;;;2.10;;
12224;SDS011;6175;50.956;11.064;2023-04-04T13:35:48;1.63;;;1.52;;
12224;SDS011;6175;50.956;11.064;2023-04-04T13:38:15;2.15;;;1.95;;
12224;SDS011;6175;50.956;11.064;2023-04-04T13:40:42;3.53;;;2.00;;
12224;SDS011;6175;50.956;11.064;2023-04-04T13:43:10;2.78;;;2.30;;
12224;SDS011;6175;50.956;11.064;2023-04-04T13:45:41;2.25;;;2.00;;
12224;SDS011;6175;50.956;11.064;2023-04-04T13:48:08;3.85;;;2.38;;
12224;SDS011;6175;50.956;11.064;2023-04-04T13:50:36;2.58;;;2.20;;
12224;SDS011;6175;50.956;11.064;2023-04-04T13:53:03;3.83;;;2.08;;
12224;SDS011;6175;50.956;11.064;2023-04-04T13:55:31;3.58;;;2.38;;
12224;SDS011;6175;50.956;11.064;2023-04-04T13:57:58;7.30;;;3.65;;
12224;SDS011;6175;50.956;11.064;2023-04-04T14:00:25;5.82;;;4.43;;
12224;SDS011;6175;50.956;11.064;2023-04-04T14:02:53;3.47;;;2.70;;
12224;SDS011;6175;50.956;11.064;2023-04-04T14:05:21;5.25;;;3.55;;
12224;SDS011;6175;50.956;11.064;2023-04-04T14:07:48;2.60;;;2.40;;
12224;SDS011;6175;50.956;11.064;2023-04-04T14:10:15;3.05;;;2.45;;
12224;SDS011;6175;50.956;11.064;2023-04-04T14:12:42;4.85;;;2.85;;
12224;SDS011;6175;50.956;11.064;2023-04-04T14:15:10;2.00;;;1.90;;
12224;SDS011;6175;50.956;11.064;2023-04-04T14:17:37;3.13;;;2.22;;
12224;SDS011;6175;50.956;11.064;2023-04-04T14:20:06;2.78;;;1.92;;
12224;SDS011;6175;50.956;11.064;2023-04-04T14:22:33;3.22;;;2.10;;
12224;SDS011;6175;50.956;11.064;2023-04-04T14:25:00;2.17;;;1.98;;
12224;SDS011;6175;50.956;11.064;2023-04-04T14:27:28;2.20;;;1.85;;
12224;SDS011;6175;50.956;11.064;2023-04-04T14:29:56;1.65;;;1.55;;
12224;SDS011;6175;50.956;11.064;2023-04-04T14:32:23;3.47;;;2.05;;
12224;SDS011;6175;50.956;11.064;2023-04-04T14:34:50;2.35;;;1.88;;
12224;SDS011;6175;50.956;11.064;2023-04-04T14:37:19;2.13;;;1.83;;
12224;SDS011;6175;50.956;11.064;2023-04-04T14:39:46;3.00;;;2.05;;
12224;SDS011;6175;50.956;11.064;2023-04-04T14:42:14;4.45;;;2.80;;
12224;SDS011;6175;50.956;11.064;2023-04-04T14:44:41;3.03;;;2.42;;
12224;SDS011;6175;50.956;11.064;2023-04-04T14:47:09;2.30;;;2.10;;
12224;SDS011;6175;50.956;11.064;2023-04-04T14:49:36;3.10;;;2.05;;
12224;SDS011;6175;50.956;11.064;2023-04-04T14:52:03;3.22;;;2.10;;
12224;SDS011;6175;50.956;11.064;2023-04-04T14:54:32;3.22;;;2.00;;
12224;SDS011;6175;50.956;11.064;2023-04-04T14:56:59;4.60;;;2.17;;
12224;SDS011;6175;50.956;11.064;2023-04-04T14:59:27;3.17;;;2.22;;